sensor_id;sensor_type;location;lat;lon;timestamp;pressure;altitude;pressure_sealevel;temperature;humidity
64388;BME280;50709;52.648;4.764;2023-06-22T00:01:49;102038.44;;;22.93;60.51
64388;BME280;50709;52.648;4.764;2023-06-22T00:04:14;102041.50;;;22.81;60.16
64388;BME280;50709;52.648;4.764;2023-06-22T00:06:40;102035.06;;;22.88;60.61
64388;BME280;50709;52.648;4.764;2023-06-22T00:09:05;102035.97;;;22.57;61.02
64388;BME280;50709;52.648;4.764;2023-06-22T00:11:32;102038.25;;;22.40;62.13
64388;BME280;50709;52.648;4.764;2023-06-22T00:13:58;102040.44;;;22.24;62.14
64388;BME280;50709;52.648;4.764;2023-06-22T00:16:24;102022.25;;;22.08;62.41
64388;BME280;50709;52.648;4.764;2023-06-22T00:18:49;102003.19;;;22.24;61.97
64388;BME280;50709;52.648;4.764;2023-06-22T00:21:14;102037.56;;;22.63;61.33
64388;BME280;50709;52.648;4.764;2023-06-22T00:23:40;102045.25;;;22.74;60.79
64388;BME280;50709;52.648;4.764;2023-06-22T00:26:06;102030.50;;;22.62;60.69
64388;BME280;50709;52.648;4.764;2023-06-22T00:28:32;102042.53;;;22.75;60.81
64388;BME280;50709;52.648;4.764;2023-06-22T00:30:57;102041.09;;;22.65;60.71
64388;BME280;50709;52.648;4.764;2023-06-22T00:33:22;102036.44;;;22.40;61.37
64388;BME280;50709;52.648;4.764;2023-06-22T00:35:48;102042.25;;;22.55;61.28
64388;BME280;50709;52.648;4.764;2023-06-22T00:38:13;102044.44;;;22.70;60.54
64388;BME280;50709;52.648;4.764;2023-06-22T00:40:39;102021.69;;;22.60;60.64
64388;BME280;50709;52.648;4.764;2023-06-22T00:43:04;102045.41;;;22.69;60.48
64388;BME280;50709;52.648;4.764;2023-06-22T00:45:30;102044.09;;;22.53;60.85
64388;BME280;50709;52.648;4.764;2023-06-22T00:47:58;102058.97;;;22.27;61.82
64388;BME280;50709;52.648;4.764;2023-06-22T00:50:26;102052.94;;;22.53;61.43
64388;BME280;50709;52.648;4.764;2023-06-22T00:52:56;102023.47;;;22.28;61.38
64388;BME280;50709;52.648;4.764;2023-06-22T00:55:22;102041.47;;;22.51;61.37
64388;BME280;50709;52.648;4.764;2023-06-22T00:57:48;102028.31;;;22.46;61.11
64388;BME280;50709;52.648;4.764;2023-06-22T01:00:14;102046.28;;;22.38;61.64
64388;BME280;50709;52.648;4.764;2023-06-22T01:02:43;102052.84;;;22.56;60.95
64388;BME280;50709;52.648;4.764;2023-06-22T01:05:12;102021.47;;;22.36;60.88
64388;BME280;50709;52.648;4.764;2023-06-22T01:13:27;102044.91;;;22.55;61.20
64388;BME280;50709;52.648;4.764;2023-06-22T01:16:02;102037.47;;;22.66;61.02
64388;BME280;50709;52.648;4.764;2023-06-22T01:18:30;102041.66;;;22.45;61.28
64388;BME280;50709;52.648;4.764;2023-06-22T01:20:56;102033.53;;;22.16;62.21
64388;BME280;50709;52.648;4.764;2023-06-22T01:26:41;102037.72;;;22.25;62.21
64388;BME280;50709;52.648;4.764;2023-06-22T01:29:08;102031.69;;;22.18;62.10
64388;BME280;50709;52.648;4.764;2023-06-22T01:31:38;102035.06;;;22.58;61.16
64388;BME280;50709;52.648;4.764;2023-06-22T01:34:05;102024.03;;;22.71;60.59
64388;BME280;50709;52.648;4.764;2023-06-22T01:36:31;102028.69;;;22.64;60.80
64388;BME280;50709;52.648;4.764;2023-06-22T01:38:58;102035.91;;;22.59;60.24
64388;BME280;50709;52.648;4.764;2023-06-22T01:41:26;102040.38;;;22.58;60.83
64388;BME280;50709;52.648;4.764;2023-06-22T01:43:53;102024.63;;;22.50;60.72
64388;BME280;50709;52.648;4.764;2023-06-22T01:46:19;102044.53;;;22.37;61.65
64388;BME280;50709;52.648;4.764;2023-06-22T01:48:46;102057.19;;;22.27;61.65
64388;BME280;50709;52.648;4.764;2023-06-22T01:51:13;102063.81;;;22.45;61.14
64388;BME280;50709;52.648;4.764;2023-06-22T01:53:38;102048.59;;;22.50;61.01
64388;BME280;50709;52.648;4.764;2023-06-22T01:56:04;102051.16;;;22.54;61.07
64388;BME280;50709;52.648;4.764;2023-06-22T01:58:31;102044.38;;;22.43;61.10
64388;BME280;50709;52.648;4.764;2023-06-22T02:01:10;102039.16;;;22.39;61.47
64388;BME280;50709;52.648;4.764;2023-06-22T02:03:53;102035.50;;;22.43;61.19
64388;BME280;50709;52.648;4.764;2023-06-22T02:06:31;102031.66;;;22.53;60.76
64388;BME280;50709;52.648;4.764;2023-06-22T02:09:02;102020.16;;;22.53;60.85
64388;BME280;50709;52.648;4.764;2023-06-22T02:11:29;102031.66;;;22.53;60.46
64388;BME280;50709;52.648;4.764;2023-06-22T02:13:57;102029.81;;;22.55;60.68
64388;BME280;50709;52.648;4.764;2023-06-22T02:16:23;102019.31;;;22.50;60.84
64388;BME280;50709;52.648;4.764;2023-06-22T02:18:50;102039.69;;;22.51;60.79
64388;BME280;50709;52.648;4.764;2023-06-22T02:21:19;102024.69;;;22.49;60.31
64388;BME280;50709;52.648;4.764;2023-06-22T02:23:45;102011.75;;;22.33;60.84
64388;BME280;50709;52.648;4.764;2023-06-22T02:26:11;102036.88;;;22.25;61.53
64388;BME280;50709;52.648;4.764;2023-06-22T02:28:37;102024.56;;;22.21;61.66
64388;BME280;50709;52.648;4.764;2023-06-22T02:31:02;102015.38;;;22.32;61.36
64388;BME280;50709;52.648;4.764;2023-06-22T02:33:28;102007.31;;;22.36;60.83
64388;BME280;50709;52.648;4.764;2023-06-22T02:35:53;102011.69;;;22.38;60.97
64388;BME280;50709;52.648;4.764;2023-06-22T02:38:19;102015.91;;;22.45;60.83
64388;BME280;50709;52.648;4.764;2023-06-22T02:40:45;102012.53;;;22.39;60.76
64388;BME280;50709;52.648;4.764;2023-06-22T02:43:10;101992.16;;;22.38;60.97
64388;BME280;50709;52.648;4.764;2023-06-22T02:45:36;101997.47;;;22.38;60.10
64388;BME280;50709;52.648;4.764;2023-06-22T02:48:01;102002.19;;;22.28;60.51
64388;BME280;50709;52.648;4.764;2023-06-22T02:50:26;102017.94;;;22.02;61.59
64388;BME280;50709;52.648;4.764;2023-06-22T02:52:52;102025.16;;;21.99;62.16
64388;BME280;50709;52.648;4.764;2023-06-22T02:55:17;102008.19;;;22.03;61.79
64388;BME280;50709;52.648;4.764;2023-06-22T02:57:43;102025.63;;;22.15;61.38
64388;BME280;50709;52.648;4.764;2023-06-22T03:00:10;102024.91;;;22.08;61.74
64388;BME280;50709;52.648;4.764;2023-06-22T03:02:43;102026.72;;;22.06;62.11
64388;BME280;50709;52.648;4.764;2023-06-22T03:05:08;102012.72;;;22.32;60.89
64388;BME280;50709;52.648;4.764;2023-06-22T03:07:38;102013.66;;;22.30;60.69
64388;BME280;50709;52.648;4.764;2023-06-22T03:10:04;102010.00;;;22.34;61.03
64388;BME280;50709;52.648;4.764;2023-06-22T03:12:30;102015.03;;;22.45;60.68
64388;BME280;50709;52.648;4.764;2023-06-22T03:14:55;102007.41;;;22.31;60.67
64388;BME280;50709;52.648;4.764;2023-06-22T03:17:20;102012.06;;;22.23;61.37
64388;BME280;50709;52.648;4.764;2023-06-22T03:19:46;102017.44;;;22.21;60.97
64388;BME280;50709;52.648;4.764;2023-06-22T03:22:11;102015.94;;;22.12;61.41
64388;BME280;50709;52.648;4.764;2023-06-22T03:24:36;101995.41;;;22.17;60.67
64388;BME280;50709;52.648;4.764;2023-06-22T03:27:04;102004.94;;;22.25;60.96
64388;BME280;50709;52.648;4.764;2023-06-22T03:29:30;102011.06;;;22.27;61.01
64388;BME280;50709;52.648;4.764;2023-06-22T03:31:56;101992.03;;;22.11;60.76
64388;BME280;50709;52.648;4.764;2023-06-22T03:34:21;102008.22;;;22.34;60.49
64388;BME280;50709;52.648;4.764;2023-06-22T03:36:46;102014.44;;;22.35;60.54
64388;BME280;50709;52.648;4.764;2023-06-22T03:39:12;101976.94;;;22.11;60.53
64388;BME280;50709;52.648;4.764;2023-06-22T03:41:38;102004.34;;;22.15;60.86
64388;BME280;50709;52.648;4.764;2023-06-22T03:44:04;102018.44;;;22.17;60.87
64388;BME280;50709;52.648;4.764;2023-06-22T03:46:29;102010.22;;;22.26;60.77
64388;BME280;50709;52.648;4.764;2023-06-22T03:48:55;102010.84;;;22.36;60.52
64388;BME280;50709;52.648;4.764;2023-06-22T03:51:20;102019.19;;;22.22;61.24
64388;BME280;50709;52.648;4.764;2023-06-22T03:53:45;101998.16;;;22.13;60.35
64388;BME280;50709;52.648;4.764;2023-06-22T03:56:11;102001.53;;;22.20;60.74
64388;BME280;50709;52.648;4.764;2023-06-22T03:58:37;101994.41;;;22.20;61.02
64388;BME280;50709;52.648;4.764;2023-06-22T04:01:08;101987.38;;;22.19;60.82
64388;BME280;50709;52.648;4.764;2023-06-22T04:03:37;101995.75;;;22.04;60.97
64388;BME280;50709;52.648;4.764;2023-06-22T04:06:02;101987.13;;;21.95;61.04
64388;BME280;50709;52.648;4.764;2023-06-22T04:08:28;101987.41;;;22.17;61.32
64388;BME280;50709;52.648;4.764;2023-06-22T04:10:53;101996.84;;;22.28;60.83
64388;BME280;50709;52.648;4.764;2023-06-22T04:13:18;101994.34;;;21.90;61.46
64388;BME280;50709;52.648;4.764;2023-06-22T04:15:44;101987.03;;;21.98;61.78
64388;BME280;50709;52.648;4.764;2023-06-22T04:18:10;101995.41;;;22.17;61.17
64388;BME280;50709;52.648;4.764;2023-06-22T04:20:35;101995.09;;;21.95;61.93
64388;BME280;50709;52.648;4.764;2023-06-22T04:23:01;101996.81;;;21.98;62.00
64388;BME280;50709;52.648;4.764;2023-06-22T04:25:26;101978.09;;;22.01;61.49
64388;BME280;50709;52.648;4.764;2023-06-22T04:27:52;101996.81;;;22.29;60.97
64388;BME280;50709;52.648;4.764;2023-06-22T04:30:17;101985.44;;;22.24;60.48
64388;BME280;50709;52.648;4.764;2023-06-22T04:32:43;101989.72;;;22.30;60.77
64388;BME280;50709;52.648;4.764;2023-06-22T04:35:10;101994.81;;;22.38;60.67
64388;BME280;50709;52.648;4.764;2023-06-22T04:37:35;101996.91;;;22.26;60.91
64388;BME280;50709;52.648;4.764;2023-06-22T04:40:00;101973.16;;;22.18;60.96
64388;BME280;50709;52.648;4.764;2023-06-22T04:42:26;101971.44;;;22.17;60.71
64388;BME280;50709;52.648;4.764;2023-06-22T04:44:52;101972.91;;;22.28;60.78
64388;BME280;50709;52.648;4.764;2023-06-22T04:47:17;101989.28;;;22.45;60.40
64388;BME280;50709;52.648;4.764;2023-06-22T04:49:43;101988.00;;;22.59;59.90
64388;BME280;50709;52.648;4.764;2023-06-22T04:52:10;101968.09;;;22.42;60.41
64388;BME280;50709;52.648;4.764;2023-06-22T04:54:37;101966.28;;;22.43;60.78
64388;BME280;50709;52.648;4.764;2023-06-22T04:57:05;101974.75;;;22.26;61.28
64388;BME280;50709;52.648;4.764;2023-06-22T04:59:35;101983.44;;;22.31;61.32
64388;BME280;50709;52.648;4.764;2023-06-22T05:02:02;101983.00;;;22.48;60.51
64388;BME280;50709;52.648;4.764;2023-06-22T05:04:29;101983.97;;;22.45;60.89
64388;BME280;50709;52.648;4.764;2023-06-22T05:06:57;101968.56;;;22.57;59.91
64388;BME280;50709;52.648;4.764;2023-06-22T05:09:22;101960.00;;;22.45;60.51
64388;BME280;50709;52.648;4.764;2023-06-22T05:11:49;101991.41;;;22.64;60.44
64388;BME280;50709;52.648;4.764;2023-06-22T05:14:14;101987.03;;;22.61;60.34
64388;BME280;50709;52.648;4.764;2023-06-22T05:16:41;101978.09;;;22.64;60.45
64388;BME280;50709;52.648;4.764;2023-06-22T05:19:07;101952.59;;;22.57;60.31
64388;BME280;50709;52.648;4.764;2023-06-22T05:21:33;102000.13;;;22.69;60.72
64388;BME280;50709;52.648;4.764;2023-06-22T05:23:58;101984.88;;;22.74;60.37
64388;BME280;50709;52.648;4.764;2023-06-22T05:26:28;101965.50;;;22.69;60.58
64388;BME280;50709;52.648;4.764;2023-06-22T05:28:57;101981.88;;;22.57;62.00
64388;BME280;50709;52.648;4.764;2023-06-22T05:31:23;101995.25;;;22.54;62.04
64388;BME280;50709;52.648;4.764;2023-06-22T05:33:50;101957.09;;;22.23;63.05
64388;BME280;50709;52.648;4.764;2023-06-22T05:36:16;101977.72;;;22.76;61.25
64388;BME280;50709;52.648;4.764;2023-06-22T05:38:42;101975.97;;;22.75;61.26
64388;BME280;50709;52.648;4.764;2023-06-22T05:41:07;101965.09;;;22.53;63.61
64388;BME280;50709;52.648;4.764;2023-06-22T05:43:33;101969.53;;;22.82;62.21
64388;BME280;50709;52.648;4.764;2023-06-22T05:46:00;101996.88;;;22.88;62.30
64388;BME280;50709;52.648;4.764;2023-06-22T05:48:26;101976.00;;;23.02;61.74
64388;BME280;50709;52.648;4.764;2023-06-22T05:50:51;101989.63;;;22.93;62.88
64388;BME280;50709;52.648;4.764;2023-06-22T05:53:17;101994.25;;;23.43;60.85
64388;BME280;50709;52.648;4.764;2023-06-22T05:55:42;101999.50;;;22.59;64.64
64388;BME280;50709;52.648;4.764;2023-06-22T05:58:08;101993.44;;;22.84;63.61
64388;BME280;50709;52.648;4.764;2023-06-22T06:00:34;101997.88;;;23.12;62.44
64388;BME280;50709;52.648;4.764;2023-06-22T06:02:59;102001.75;;;23.58;61.54
64388;BME280;50709;52.648;4.764;2023-06-22T06:05:30;102000.78;;;23.34;62.96
64388;BME280;50709;52.648;4.764;2023-06-22T06:07:56;102004.59;;;23.25;63.64
64388;BME280;50709;52.648;4.764;2023-06-22T06:10:22;101984.91;;;23.29;62.58
64388;BME280;50709;52.648;4.764;2023-06-22T06:12:47;101993.88;;;23.27;63.07
64388;BME280;50709;52.648;4.764;2023-06-22T06:15:13;101990.44;;;22.95;64.23
64388;BME280;50709;52.648;4.764;2023-06-22T06:17:48;101998.22;;;22.73;65.56
64388;BME280;50709;52.648;4.764;2023-06-22T06:20:15;102001.81;;;23.30;63.43
64388;BME280;50709;52.648;4.764;2023-06-22T06:22:41;102003.41;;;22.77;65.63
64388;BME280;50709;52.648;4.764;2023-06-22T06:25:08;101966.31;;;22.99;64.80
64388;BME280;50709;52.648;4.764;2023-06-22T06:27:33;101986.00;;;23.24;63.99
64388;BME280;50709;52.648;4.764;2023-06-22T06:29:59;101996.06;;;23.42;62.17
64388;BME280;50709;52.648;4.764;2023-06-22T06:32:24;101994.47;;;23.08;64.91
64388;BME280;50709;52.648;4.764;2023-06-22T06:34:49;101987.22;;;23.12;64.28
64388;BME280;50709;52.648;4.764;2023-06-22T06:37:15;101973.72;;;22.61;66.44
64388;BME280;50709;52.648;4.764;2023-06-22T06:39:40;101989.09;;;22.81;65.87
64388;BME280;50709;52.648;4.764;2023-06-22T06:42:06;101979.94;;;23.45;62.49
64388;BME280;50709;52.648;4.764;2023-06-22T06:44:31;101963.41;;;23.86;61.83
64388;BME280;50709;52.648;4.764;2023-06-22T06:46:57;101985.13;;;23.23;64.33
64388;BME280;50709;52.648;4.764;2023-06-22T06:49:22;101994.41;;;23.38;63.17
64388;BME280;50709;52.648;4.764;2023-06-22T06:51:47;101989.13;;;23.37;63.26
64388;BME280;50709;52.648;4.764;2023-06-22T06:54:13;101984.91;;;24.08;60.83
64388;BME280;50709;52.648;4.764;2023-06-22T06:56:38;101972.66;;;23.24;63.64
64388;BME280;50709;52.648;4.764;2023-06-22T06:59:04;101989.13;;;23.37;63.26
64388;BME280;50709;52.648;4.764;2023-06-22T07:01:29;101979.28;;;23.39;63.43
64388;BME280;50709;52.648;4.764;2023-06-22T07:03:59;101971.19;;;23.94;61.79
64388;BME280;50709;52.648;4.764;2023-06-22T07:06:25;101978.59;;;23.59;61.99
64388;BME280;50709;52.648;4.764;2023-06-22T07:08:55;101980.09;;;24.18;60.24
64388;BME280;50709;52.648;4.764;2023-06-22T07:11:20;101975.97;;;24.09;60.39
64388;BME280;50709;52.648;4.764;2023-06-22T07:13:45;101969.09;;;24.49;58.42
64388;BME280;50709;52.648;4.764;2023-06-22T07:16:11;101973.72;;;24.46;58.93
64388;BME280;50709;52.648;4.764;2023-06-22T07:18:36;101968.47;;;24.43;59.29
64388;BME280;50709;52.648;4.764;2023-06-22T07:21:02;101969.66;;;24.58;58.97
64388;BME280;50709;52.648;4.764;2023-06-22T07:23:29;101958.28;;;24.07;59.49
64388;BME280;50709;52.648;4.764;2023-06-22T07:25:54;101971.63;;;24.07;59.82
64388;BME280;50709;52.648;4.764;2023-06-22T07:28:20;101963.38;;;24.37;58.86
64388;BME280;50709;52.648;4.764;2023-06-22T07:30:47;101972.72;;;24.25;59.63
64388;BME280;50709;52.648;4.764;2023-06-22T07:33:12;101979.56;;;24.08;60.01
64388;BME280;50709;52.648;4.764;2023-06-22T07:35:38;101979.31;;;23.64;60.81
64388;BME280;50709;52.648;4.764;2023-06-22T07:38:03;101942.69;;;24.65;58.27
64388;BME280;50709;52.648;4.764;2023-06-22T07:40:29;101960.00;;;24.08;59.02
64388;BME280;50709;52.648;4.764;2023-06-22T07:42:54;101966.91;;;24.13;59.04
64388;BME280;50709;52.648;4.764;2023-06-22T07:45:20;101965.63;;;24.00;58.93
64388;BME280;50709;52.648;4.764;2023-06-22T07:47:45;101961.06;;;24.27;57.94
64388;BME280;50709;52.648;4.764;2023-06-22T07:50:11;101964.50;;;24.31;57.91
64388;BME280;50709;52.648;4.764;2023-06-22T07:52:36;101967.50;;;24.69;57.44
64388;BME280;50709;52.648;4.764;2023-06-22T07:55:02;101953.97;;;24.26;57.77
64388;BME280;50709;52.648;4.764;2023-06-22T07:57:29;101958.13;;;25.03;56.00
64388;BME280;50709;52.648;4.764;2023-06-22T08:00:03;101952.53;;;25.09;55.63
64388;BME280;50709;52.648;4.764;2023-06-22T08:02:33;101957.03;;;24.63;56.95
64388;BME280;50709;52.648;4.764;2023-06-22T08:04:58;101948.03;;;25.10;55.90
64388;BME280;50709;52.648;4.764;2023-06-22T08:07:26;101943.69;;;25.29;55.47
64388;BME280;50709;52.648;4.764;2023-06-22T08:09:51;101947.50;;;25.01;55.49
64388;BME280;50709;52.648;4.764;2023-06-22T08:12:17;101930.75;;;25.18;54.97
64388;BME280;50709;52.648;4.764;2023-06-22T08:14:43;101927.59;;;25.51;53.95
64388;BME280;50709;52.648;4.764;2023-06-22T08:17:11;101933.25;;;25.85;51.99
64388;BME280;50709;52.648;4.764;2023-06-22T08:19:37;101905.44;;;24.62;55.20
64388;BME280;50709;52.648;4.764;2023-06-22T08:22:02;101948.69;;;24.94;54.92
64388;BME280;50709;52.648;4.764;2023-06-22T08:24:28;101947.72;;;25.17;54.64
64388;BME280;50709;52.648;4.764;2023-06-22T08:26:55;101944.91;;;25.63;53.07
64388;BME280;50709;52.648;4.764;2023-06-22T08:29:22;101944.19;;;24.95;54.72
64388;BME280;50709;52.648;4.764;2023-06-22T08:31:48;101934.94;;;25.46;52.99
64388;BME280;50709;52.648;4.764;2023-06-22T08:34:13;101934.00;;;25.68;52.75
64388;BME280;50709;52.648;4.764;2023-06-22T08:36:39;101930.41;;;25.26;52.88
64388;BME280;50709;52.648;4.764;2023-06-22T08:39:10;101917.56;;;25.14;53.08
64388;BME280;50709;52.648;4.764;2023-06-22T08:41:35;101911.97;;;25.82;51.85
64388;BME280;50709;52.648;4.764;2023-06-22T08:44:00;101905.09;;;25.76;51.46
64388;BME280;50709;52.648;4.764;2023-06-22T08:46:26;101920.56;;;25.49;52.76
64388;BME280;50709;52.648;4.764;2023-06-22T08:48:56;101881.78;;;25.99;52.01
64388;BME280;50709;52.648;4.764;2023-06-22T08:51:22;101911.22;;;26.56;51.27
64388;BME280;50709;52.648;4.764;2023-06-22T08:53:48;101918.72;;;26.49;50.51
64388;BME280;50709;52.648;4.764;2023-06-22T08:56:13;101901.19;;;26.04;51.90
64388;BME280;50709;52.648;4.764;2023-06-22T08:58:39;101915.91;;;26.14;51.66
64388;BME280;50709;52.648;4.764;2023-06-22T09:01:04;101912.72;;;26.44;50.59
64388;BME280;50709;52.648;4.764;2023-06-22T09:03:30;101901.84;;;25.89;50.54
64388;BME280;50709;52.648;4.764;2023-06-22T09:05:57;101906.28;;;26.29;51.18
64388;BME280;50709;52.648;4.764;2023-06-22T09:08:24;101910.81;;;26.08;51.36
64388;BME280;50709;52.648;4.764;2023-06-22T09:10:50;101897.56;;;25.65;51.56
64388;BME280;50709;52.648;4.764;2023-06-22T09:13:15;101914.19;;;25.72;51.28
64388;BME280;50709;52.648;4.764;2023-06-22T09:15:40;101903.94;;;26.22;50.50
64388;BME280;50709;52.648;4.764;2023-06-22T09:18:06;101895.13;;;25.80;52.27
64388;BME280;50709;52.648;4.764;2023-06-22T09:20:31;101900.00;;;26.67;50.97
64388;BME280;50709;52.648;4.764;2023-06-22T09:22:57;101905.72;;;26.78;49.61
64388;BME280;50709;52.648;4.764;2023-06-22T09:25:23;101902.06;;;26.43;50.24
64388;BME280;50709;52.648;4.764;2023-06-22T09:27:48;101897.03;;;25.97;50.70
64388;BME280;50709;52.648;4.764;2023-06-22T09:30:14;101899.72;;;25.97;50.31
64388;BME280;50709;52.648;4.764;2023-06-22T09:32:39;101891.19;;;25.68;50.17
64388;BME280;50709;52.648;4.764;2023-06-22T09:35:05;101898.91;;;25.95;50.28
64388;BME280;50709;52.648;4.764;2023-06-22T09:37:31;101874.34;;;26.06;50.33
64388;BME280;50709;52.648;4.764;2023-06-22T09:39:57;101899.56;;;26.00;49.54
64388;BME280;50709;52.648;4.764;2023-06-22T09:42:25;101907.22;;;26.84;49.62
64388;BME280;50709;52.648;4.764;2023-06-22T09:44:50;101909.38;;;26.95;50.07
64388;BME280;50709;52.648;4.764;2023-06-22T09:47:16;101888.91;;;26.19;50.76
64388;BME280;50709;52.648;4.764;2023-06-22T09:49:41;101904.03;;;26.39;51.11
64388;BME280;50709;52.648;4.764;2023-06-22T09:52:07;101891.97;;;27.03;49.71
64388;BME280;50709;52.648;4.764;2023-06-22T09:54:33;101896.25;;;26.71;49.91
64388;BME280;50709;52.648;4.764;2023-06-22T09:56:58;101895.91;;;27.14;49.79
64388;BME280;50709;52.648;4.764;2023-06-22T09:59:24;101874.44;;;26.60;50.18
64388;BME280;50709;52.648;4.764;2023-06-22T10:01:49;101898.81;;;27.27;49.10
64388;BME280;50709;52.648;4.764;2023-06-22T10:04:14;101887.00;;;26.96;49.25
64388;BME280;50709;52.648;4.764;2023-06-22T10:06:40;101889.97;;;27.25;49.19
64388;BME280;50709;52.648;4.764;2023-06-22T10:09:09;101886.50;;;26.88;49.90
64388;BME280;50709;52.648;4.764;2023-06-22T10:11:34;101882.66;;;27.28;50.01
64388;BME280;50709;52.648;4.764;2023-06-22T10:14:00;101883.97;;;27.19;48.31
64388;BME280;50709;52.648;4.764;2023-06-22T10:16:33;101886.44;;;26.89;48.86
64388;BME280;50709;52.648;4.764;2023-06-22T10:19:00;101894.41;;;27.08;48.61
64388;BME280;50709;52.648;4.764;2023-06-22T10:21:25;101886.34;;;27.08;48.95
64388;BME280;50709;52.648;4.764;2023-06-22T10:23:52;101891.69;;;26.73;48.39
64388;BME280;50709;52.648;4.764;2023-06-22T10:26:18;101876.91;;;27.18;49.04
64388;BME280;50709;52.648;4.764;2023-06-22T10:28:43;101872.47;;;27.35;48.88
64388;BME280;50709;52.648;4.764;2023-06-22T10:31:09;101859.78;;;27.56;48.94
64388;BME280;50709;52.648;4.764;2023-06-22T10:33:34;101832.56;;;27.46;48.92
64388;BME280;50709;52.648;4.764;2023-06-22T10:36:00;101863.31;;;26.50;49.78
64388;BME280;50709;52.648;4.764;2023-06-22T10:38:25;101850.28;;;27.31;49.38
64388;BME280;50709;52.648;4.764;2023-06-22T10:40:50;101854.91;;;27.12;49.13
64388;BME280;50709;52.648;4.764;2023-06-22T10:43:16;101854.09;;;27.27;48.73
64388;BME280;50709;52.648;4.764;2023-06-22T10:45:41;101862.94;;;27.12;47.99
64388;BME280;50709;52.648;4.764;2023-06-22T10:48:07;101861.84;;;26.98;48.03
64388;BME280;50709;52.648;4.764;2023-06-22T10:50:32;101848.66;;;27.46;47.67
64388;BME280;50709;52.648;4.764;2023-06-22T10:52:57;101865.06;;;27.05;48.88
64388;BME280;50709;52.648;4.764;2023-06-22T10:55:23;101867.09;;;27.35;48.01
64388;BME280;50709;52.648;4.764;2023-06-22T10:57:48;101864.91;;;27.08;47.50
64388;BME280;50709;52.648;4.764;2023-06-22T11:00:15;101842.28;;;26.96;47.84
64388;BME280;50709;52.648;4.764;2023-06-22T11:02:41;101865.72;;;27.10;47.82
64388;BME280;50709;52.648;4.764;2023-06-22T11:05:07;101865.00;;;27.07;48.19
64388;BME280;50709;52.648;4.764;2023-06-22T11:07:32;101850.69;;;27.41;47.40
64388;BME280;50709;52.648;4.764;2023-06-22T11:09:58;101870.53;;;27.21;45.06
64388;BME280;50709;52.648;4.764;2023-06-22T11:12:23;101873.34;;;27.18;47.89
64388;BME280;50709;52.648;4.764;2023-06-22T11:14:49;101845.19;;;27.44;45.78
64388;BME280;50709;52.648;4.764;2023-06-22T11:17:17;101858.81;;;27.05;45.52
64388;BME280;50709;52.648;4.764;2023-06-22T11:19:44;101807.19;;;27.18;46.87
64388;BME280;50709;52.648;4.764;2023-06-22T11:22:09;101856.59;;;27.81;46.59
64388;BME280;50709;52.648;4.764;2023-06-22T11:24:34;101848.97;;;27.58;47.00
64388;BME280;50709;52.648;4.764;2023-06-22T11:27:00;101855.75;;;27.12;44.67
64388;BME280;50709;52.648;4.764;2023-06-22T11:29:26;101847.56;;;27.66;45.94
64388;BME280;50709;52.648;4.764;2023-06-22T11:31:52;101844.53;;;27.57;46.50
64388;BME280;50709;52.648;4.764;2023-06-22T11:34:17;101852.00;;;27.67;46.32
64388;BME280;50709;52.648;4.764;2023-06-22T11:36:44;101852.34;;;28.11;46.01
64388;BME280;50709;52.648;4.764;2023-06-22T11:39:10;101848.91;;;27.42;45.55
64388;BME280;50709;52.648;4.764;2023-06-22T11:41:36;101851.31;;;27.46;47.21
64388;BME280;50709;52.648;4.764;2023-06-22T11:44:01;101853.31;;;27.92;46.32
64388;BME280;50709;52.648;4.764;2023-06-22T11:46:27;101834.56;;;27.43;45.31
64388;BME280;50709;52.648;4.764;2023-06-22T11:48:52;101854.63;;;27.34;44.93
64388;BME280;50709;52.648;4.764;2023-06-22T11:51:17;101843.00;;;27.68;46.84
64388;BME280;50709;52.648;4.764;2023-06-22T11:53:43;101847.22;;;27.57;45.13
64388;BME280;50709;52.648;4.764;2023-06-22T11:56:08;101841.53;;;27.79;47.69
64388;BME280;50709;52.648;4.764;2023-06-22T11:58:33;101854.09;;;27.78;45.94
64388;BME280;50709;52.648;4.764;2023-06-22T12:00:59;101836.81;;;27.33;44.98
64388;BME280;50709;52.648;4.764;2023-06-22T12:03:24;101853.88;;;27.49;45.30
64388;BME280;50709;52.648;4.764;2023-06-22T12:05:50;101857.53;;;27.64;46.49
64388;BME280;50709;52.648;4.764;2023-06-22T12:08:17;101850.88;;;27.38;45.14
64388;BME280;50709;52.648;4.764;2023-06-22T12:10:42;101833.84;;;27.89;44.38
64388;BME280;50709;52.648;4.764;2023-06-22T12:13:08;101823.78;;;27.60;45.96
64388;BME280;50709;52.648;4.764;2023-06-22T12:15:33;101832.56;;;27.29;45.12
64388;BME280;50709;52.648;4.764;2023-06-22T12:17:59;101822.16;;;27.90;45.20
64388;BME280;50709;52.648;4.764;2023-06-22T12:20:24;101830.84;;;27.61;45.17
64388;BME280;50709;52.648;4.764;2023-06-22T12:22:49;101833.19;;;27.34;45.62
64388;BME280;50709;52.648;4.764;2023-06-22T12:25:17;101817.34;;;27.47;45.38
64388;BME280;50709;52.648;4.764;2023-06-22T12:27:42;101814.63;;;27.80;45.25
64388;BME280;50709;52.648;4.764;2023-06-22T12:30:08;101812.06;;;27.61;44.36
64388;BME280;50709;52.648;4.764;2023-06-22T12:32:34;101813.84;;;27.94;43.70
64388;BME280;50709;52.648;4.764;2023-06-22T12:34:59;101806.63;;;27.79;45.93
64388;BME280;50709;52.648;4.764;2023-06-22T12:37:25;101807.34;;;27.98;43.74
64388;BME280;50709;52.648;4.764;2023-06-22T12:39:50;101818.63;;;28.37;44.79
64388;BME280;50709;52.648;4.764;2023-06-22T12:42:16;101812.66;;;27.33;44.30
64388;BME280;50709;52.648;4.764;2023-06-22T12:44:42;101796.94;;;27.09;44.08
64388;BME280;50709;52.648;4.764;2023-06-22T12:47:08;101782.78;;;27.41;44.55
64388;BME280;50709;52.648;4.764;2023-06-22T12:49:37;101809.81;;;27.69;43.43
64388;BME280;50709;52.648;4.764;2023-06-22T12:52:03;101804.81;;;27.63;44.74
64388;BME280;50709;52.648;4.764;2023-06-22T12:54:29;101773.25;;;27.84;43.23